Time;durP1;ratioP1;P1;durP2;ratioP2;P2;SDS_P1;SDS_P2;PMS_P1;PMS_P2;Temp;Humidity;BMP_temperature;BMP_pressure;BME280_temperature;BME280_humidity;BME280_pressure;Samples;Min_cycle;Max_cycle;Signal;HPM_P1;HPM_P2
2023/09/19 00:02:17;;;;;;;4.68;0.40;;;;;;;;;;5031452;28;20740;-76
2023/09/19 00:04:43;;;;;;;0.73;0.47;;;;;;;;;;5031292;28;20568;-76
2023/09/19 00:07:09;;;;;;;0.90;0.50;;;;;;;;;;5031482;28;20429;-76
2023/09/19 00:09:37;;;;;;;1.85;0.40;;;;;;;;;;5030991;28;20079;-75
2023/09/19 00:12:05;;;;;;;;;;;18.80;92.00;;;;;;5031601;28;20105;-76
2023/09/19 00:14:34;;;;;;;5.10;0.50;;;;;;;;;;5017974;28;20457;-76
2023/09/19 00:17:00;;;;;;;5.47;0.47;;;;;;;;;;5027319;28;20483;-75
2023/09/19 00:19:26;;;;;;;0.80;0.43;;;;;;;;;;5031034;28;20478;-76
2023/09/19 00:21:53;;;;;;;2.53;0.40;;;;;;;;;;5030652;28;20144;-76
2023/09/19 00:24:19;;;;;;;1.08;0.45;;;;;;;;;;5030827;28;20025;-76
2023/09/19 00:26:46;;;;;;;3.45;0.50;;;;;;;;;;5030895;28;20044;-76
2023/09/19 00:29:16;;;;;;;2.38;0.25;;;;;;;;;;5030883;28;20029;-76
2023/09/19 00:31:43;;;;;;;0.50;0.40;;;18.60;92.90;;;;;;5031042;28;20399;-75
2023/09/19 00:34:10;;;;;;;1.05;0.47;;;;;;;;;;5031204;28;20045;-75
2023/09/19 00:36:38;;;;;;;1.35;0.68;;;;;;;;;;5030463;28;20053;-76
2023/09/19 00:39:05;;;;;;;0.65;0.40;;;;;;;;;;5029602;28;20037;-76
2023/09/19 00:41:32;;;;;;;1.55;0.93;;;18.60;95.40;;;;;;5030581;28;20034;-76
2023/09/19 00:43:59;;;;;;;0.43;0.40;;;;;;;;;;5026052;28;20465;-75
2023/09/19 00:46:26;;;;;;;1.63;0.50;;;;;;;;;;5026820;28;20029;-76
2023/09/19 00:48:52;;;;;;;0.50;0.30;;;;;;;;;;5030731;28;20113;-75
2023/09/19 00:51:20;;;;;;;0.90;0.52;;;;;;;;;;5029369;28;20033;-75
2023/09/19 00:53:47;;;;;;;6.18;0.50;;;18.60;95.20;;;;;;5030096;28;20486;-75
2023/09/19 00:56:13;;;;;;;0.30;0.30;;;;;;;;;;5029891;28;20033;-75
2023/09/19 00:58:40;;;;;;;0.55;0.32;;;;;;;;;;5030464;28;20079;-76
2023/09/19 01:01:06;;;;;;;0.73;0.40;;;;;;;;;;5029707;28;20029;-75
2023/09/19 01:03:33;;;;;;;0.82;0.45;;;18.60;95.10;;;;;;5030973;28;20026;-76
2023/09/19 01:06:00;;;;;;;0.70;0.40;;;18.50;96.40;;;;;;5029905;28;20129;-75
2023/09/19 01:08:29;;;;;;;0.85;0.47;;;;;;;;;;5029767;28;20018;-76
2023/09/19 01:11:20;;;;;;;0.30;0.30;;;18.50;97.40;;;;;;5029893;28;20056;-76
2023/09/19 01:14:27;;;;;;;0.30;0.30;;;18.30;98.40;;;;;;5029875;28;20450;-76
2023/09/19 01:17:01;;;;;;;0.60;0.30;;;18.30;97.70;;;;;;5025977;28;20168;-75
2023/09/19 01:19:32;;;;;;;2.38;0.68;;;18.30;97.70;;;;;;5018389;28;20045;-75
2023/09/19 01:22:06;;;;;;;1.25;0.45;;;18.30;98.00;;;;;;5029012;28;20052;-75
2023/09/19 01:24:52;;;;;;;0.43;0.40;;;18.20;98.90;;;;;;5029796;28;20626;-76
2023/09/19 01:27:18;;;;;;;0.88;0.55;;;;;;;;;;5028566;28;20034;-75
2023/09/19 01:29:46;;;;;;;2.45;0.40;;;18.10;99.10;;;;;;5029615;28;20026;-76
2023/09/19 01:32:24;;;;;;;0.70;0.30;;;18.20;97.60;;;;;;5028996;28;20037;-76
2023/09/19 01:35:00;;;;;;;0.38;0.30;;;18.10;99.90;;;;;;5038870;28;20510;-76
2023/09/19 01:37:26;;;;;;;0.55;0.40;;;;;;;;;;5029245;28;20064;-76
2023/09/19 01:40:11;;;;;;;0.55;0.25;;;18.10;98.40;;;;;;5028396;28;20701;-76
2023/09/19 01:43:26;;;;;;;0.52;0.28;;;18.10;98.00;;;;;;5029631;28;20177;-76
2023/09/19 01:46:13;;;;;;;0.20;0.20;;;18.10;98.60;;;;;;5029604;28;20068;-76
2023/09/19 01:48:49;;;;;;;0.75;0.20;;;18.00;98.40;;;;;;5026336;28;20572;-76
2023/09/19 01:51:21;;;;;;;0.88;0.30;;;17.90;98.70;;;;;;5027885;28;20024;-76
2023/09/19 01:54:02;;;;;;;0.57;0.20;;;17.90;99.30;;;;;;5029485;28;20512;-76
2023/09/19 01:56:40;;;;;;;0.22;0.22;;;17.80;99.90;;;;;;5028106;28;20025;-76
2023/09/19 01:59:17;;;;;;;;;;;17.90;98.30;;;;;;5018366;28;20510;-76
2023/09/19 02:01:45;;;;;;;1.10;0.30;;;17.70;98.50;;;;;;5028774;28;19971;-76
2023/09/19 02:04:11;;;;;;;0.75;0.50;;;;;;;;;;5028253;28;20021;-76
2023/09/19 02:06:43;;;;;;;0.30;0.30;;;17.60;98.50;;;;;;5028851;28;20040;-75
2023/09/19 02:09:09;;;;;;;0.45;0.30;;;;;;;;;;5017101;28;20033;-75
2023/09/19 02:11:36;;;;;;;0.98;0.60;;;;;;;;;;5029113;28;20451;-76
2023/09/19 02:14:04;;;;;;;;;;;;;;;;;;5029606;28;20033;-76
2023/09/19 02:16:30;;;;;;;1.17;0.45;;;;;;;;;;5028939;28;19967;-75
2023/09/19 02:18:55;;;;;;;0.30;0.25;;;17.50;99.90;;;;;;5028868;28;20025;-75
2023/09/19 02:21:21;;;;;;;2.05;0.55;;;;;;;;;;5027494;28;20036;-75
2023/09/19 02:23:48;;;;;;;0.57;0.47;;;;;;;;;;5028325;28;20029;-75
2023/09/19 02:26:14;;;;;;;3.13;0.43;;;;;;;;;;5028793;28;20486;-76
2023/09/19 02:28:40;;;;;;;0.40;0.30;;;;;;;;;;5028847;28;20367;-76
2023/09/19 02:31:06;;;;;;;0.40;0.40;;;;;;;;;;5029008;28;20025;-76
2023/09/19 02:33:32;;;;;;;0.65;0.45;;;;;;;;;;5028747;28;20103;-75
2023/09/19 02:35:59;;;;;;;2.03;0.80;;;;;;;;;;5028580;28;20060;-76
2023/09/19 02:38:25;;;;;;;0.63;0.40;;;;;;;;;;5028483;28;20100;-75
2023/09/19 02:40:52;;;;;;;0.40;0.20;;;;;;;;;;5028818;28;20041;-76
2023/09/19 02:43:19;;;;;;;0.70;0.57;;;17.50;99.90;;;;;;5028340;28;20030;-76
2023/09/19 02:45:46;;;;;;;0.50;0.30;;;;;;;;;;5028556;28;20036;-76
2023/09/19 02:48:12;;;;;;;3.10;0.30;;;;;;;;;;5028599;28;20061;-76
2023/09/19 02:50:40;;;;;;;0.98;0.75;;;;;;;;;;5028175;28;20021;-75
2023/09/19 02:53:06;;;;;;;4.35;0.55;;;17.80;99.90;;;;;;5028359;28;20025;-76
2023/09/19 02:55:32;;;;;;;0.33;0.23;;;;;;;;;;5028603;28;20034;-76
2023/09/19 02:57:59;;;;;;;0.60;0.28;;;;;;;;;;5028542;28;20167;-75
2023/09/19 03:00:25;;;;;;;0.68;0.40;;;;;;;;;;5027690;28;20120;-75
2023/09/19 03:02:53;;;;;;;0.55;0.30;;;;;;;;;;5028137;28;20026;-76
2023/09/19 03:05:19;;;;;;;0.30;0.30;;;;;;;;;;5028327;28;20029;-75
2023/09/19 03:07:51;;;;;;;1.30;0.30;;;;;;;;;;5026000;28;20026;-76
2023/09/19 03:10:18;;;;;;;1.88;0.90;;;17.90;96.40;;;;;;5028513;28;20148;-76
2023/09/19 03:12:44;;;;;;;0.20;0.20;;;;;;;;;;5028924;28;20018;-75
2023/09/19 03:15:10;;;;;;;1.38;0.50;;;;;;;;;;5024126;28;20491;-75
2023/09/19 03:17:36;;;;;;;0.80;0.20;;;;;;;;;;5024867;28;20021;-76
2023/09/19 03:20:04;;;;;;;0.55;0.45;;;;;;;;;;5028295;28;20510;-76
2023/09/19 03:22:30;;;;;;;0.65;0.30;;;;;;;;;;5028451;28;20040;-76
2023/09/19 03:24:57;;;;;;;0.30;0.20;;;;;;;;;;5028318;28;20517;-76
2023/09/19 03:27:23;;;;;;;3.40;0.50;;;;;;;;;;5026731;28;20022;-76
2023/09/19 03:29:49;;;;;;;0.82;0.40;;;;;;;;;;5028576;28;20394;-76
2023/09/19 03:32:15;;;;;;;0.20;0.20;;;;;;;;;;5027626;28;20113;-75
2023/09/19 03:34:43;;;;;;;0.20;0.20;;;;;;;;;;5028486;28;20053;-76
2023/09/19 03:37:09;;;;;;;0.32;0.25;;;18.00;99.90;;;;;;5027866;28;20033;-76
2023/09/19 03:39:35;;;;;;;1.45;0.20;;;;;;;;;;5028218;28;20033;-76
2023/09/19 03:42:03;;;;;;;0.30;0.30;;;18.00;97.20;;;;;;5036419;28;20116;-76
2023/09/19 03:44:30;;;;;;;1.02;0.68;;;;;;;;;;5028331;28;20026;-76
2023/09/19 03:46:56;;;;;;;1.92;0.70;;;;;;;;;;5027910;28;20033;-76
2023/09/19 03:49:22;;;;;;;1.03;0.57;;;;;;;;;;5028215;28;20063;-75
2023/09/19 03:51:48;;;;;;;0.63;0.32;;;;;;;;;;5031520;28;20056;-76
2023/09/19 03:54:14;;;;;;;0.30;0.30;;;;;;;;;;5027427;28;20037;-75
2023/09/19 03:56:40;;;;;;;0.20;0.20;;;17.60;99.90;;;;;;5028172;28;20033;-75
2023/09/19 03:59:08;;;;;;;0.40;0.30;;;;;;;;;;5031854;28;20105;-76
2023/09/19 04:01:34;;;;;;;0.28;0.28;;;;;;;;;;5031098;28;20469;-76
2023/09/19 04:04:07;;;;;;;1.05;0.35;;;;;;;;;;5031688;28;20104;-76
2023/09/19 04:06:35;;;;;;;0.50;0.50;;;;;;;;;;5031561;28;20406;-76
2023/09/19 04:09:01;;;;;;;0.38;0.30;;;;;;;;;;5031518;28;20026;-75
2023/09/19 04:11:27;;;;;;;0.30;0.30;;;;;;;;;;5031377;28;20029;-76
2023/09/19 04:13:53;;;;;;;3.13;0.30;;;;;;;;;;5031801;28;20030;-75
2023/09/19 04:16:19;;;;;;;0.73;0.30;;;;;;;;;;5030572;28;20026;-75
2023/09/19 04:18:46;;;;;;;0.43;0.30;;;;;;;;;;5031389;28;20028;-75
2023/09/19 04:21:12;;;;;;;0.47;0.40;;;;;;;;;;5025874;28;20566;-75
2023/09/19 04:23:38;;;;;;;0.63;0.30;;;;;;;;;;5023799;28;20022;-76
2023/09/19 04:26:04;;;;;;;0.45;0.35;;;;;;;;;;5030768;28;20025;-75
2023/09/19 04:28:31;;;;;;;0.73;0.52;;;;;;;;;;5031329;28;20032;-76
2023/09/19 04:30:58;;;;;;;2.75;0.50;;;;;;;;;;5030669;28;20648;-76
2023/09/19 04:33:24;;;;;;;;;;;16.00;99.90;;;;;;5031571;28;20494;-75
2023/09/19 04:35:50;;;;;;;0.82;0.35;;;15.60;99.90;;;;;;5030450;28;19928;-75
2023/09/19 04:38:20;;;;;;;1.05;0.70;;;15.80;99.90;;;;;;5031265;28;20037;-75
2023/09/19 04:40:46;;;;;;;0.65;0.55;;;;;;;;;;5026076;28;20041;-75
2023/09/19 04:43:12;;;;;;;0.22;0.22;;;;;;;;;;5025185;28;20029;-75
2023/09/19 04:45:39;;;;;;;1.23;0.50;;;;;;;;;;5022956;28;20031;-75
2023/09/19 04:48:08;;;;;;;0.40;0.40;;;15.90;99.90;;;;;;5030618;28;20032;-75
2023/09/19 04:50:34;;;;;;;3.92;0.60;;;;;;;;;;5030130;28;20242;-75
2023/09/19 04:53:01;;;;;;;1.33;0.50;;;;;;;;;;5030469;28;20026;-76
2023/09/19 04:55:27;;;;;;;1.30;0.43;;;14.70;99.90;;;;;;5029722;28;20490;-76
2023/09/19 04:57:53;;;;;;;0.98;0.50;;;;;;;;;;5030103;28;20025;-75
2023/09/19 05:00:23;;;;;;;4.55;0.57;;;;;;;;;;5027954;28;20040;-75
2023/09/19 05:02:52;;;;;;;1.80;0.50;;;14.90;99.90;;;;;;5029559;28;20044;-76
2023/09/19 05:05:19;;;;;;;1.13;0.40;;;;;;;;;;5029901;28;20113;-75
2023/09/19 05:07:45;;;;;;;0.40;0.40;;;15.00;99.90;;;;;;5030321;28;20033;-75
2023/09/19 05:10:12;;;;;;;1.08;0.82;;;15.00;99.90;;;;;;5030016;28;20023;-75
2023/09/19 05:12:38;;;;;;;0.55;0.50;;;;;;;;;;5030097;28;20502;-75
2023/09/19 05:15:08;;;;;;;5.55;0.65;;;14.90;99.90;;;;;;5029718;28;20558;-75
2023/09/19 05:17:34;;;;;;;0.52;0.40;;;;;;;;;;5027474;28;20032;-75
2023/09/19 05:20:11;;;;;;;0.50;0.50;;;;;;;;;;5025608;28;20037;-75
2023/09/19 05:22:39;;;;;;;1.85;0.50;;;14.80;99.90;;;;;;5027363;28;20075;-75
2023/09/19 05:25:06;;;;;;;1.55;0.65;;;14.70;99.90;;;;;;5020948;28;20034;-75
2023/09/19 05:27:31;;;;;;;1.73;0.82;;;;;;;;;;5025644;28;20585;-76
2023/09/19 05:29:58;;;;;;;4.68;1.05;;;;;;;;;;5031525;28;20032;-75
2023/09/19 05:32:24;;;;;;;2.25;0.70;;;;;;;;;;5030037;28;20033;-76
2023/09/19 05:34:53;;;;;;;7.75;0.88;;;;;;;;;;5029286;28;20046;-76
2023/09/19 05:37:19;;;;;;;1.00;0.70;;;;;;;;;;5028808;28;20112;-75
2023/09/19 05:39:45;;;;;;;2.05;0.60;;;;;;;;;;5026704;28;20025;-75
2023/09/19 05:42:11;;;;;;;0.40;0.40;;;;;;;;;;5017963;28;20041;-75
2023/09/19 05:44:37;;;;;;;0.93;0.70;;;;;;;;;;5028620;28;20074;-78
2023/09/19 05:47:03;;;;;;;3.17;0.60;;;14.70;99.90;;;;;;5028369;28;20025;-75
2023/09/19 05:49:29;;;;;;;4.28;1.13;;;;;;;;;;5043385;28;20402;-75
2023/09/19 05:51:56;;;;;;;2.65;0.50;;;14.50;99.90;;;;;;5026874;28;20036;-75
2023/09/19 05:54:22;;;;;;;0.45;0.45;;;;;;;;;;5028808;28;20033;-76
2023/09/19 05:56:48;;;;;;;1.00;0.85;;;;;;;;;;5026627;28;20076;-76
2023/09/19 05:59:17;;;;;;;1.63;0.85;;;;;;;;;;5028334;28;20025;-76
2023/09/19 06:01:43;;;;;;;0.75;0.60;;;;;;;;;;5027908;28;20068;-75
2023/09/19 06:04:09;;;;;;;2.55;1.27;;;14.90;99.90;;;;;;5028036;28;20025;-75
2023/09/19 06:06:38;;;;;;;1.42;0.68;;;;;;;;;;5027840;28;20029;-76
2023/09/19 06:09:05;;;;;;;1.15;0.65;;;;;;;;;;5028584;28;20033;-75
2023/09/19 06:11:34;;;;;;;0.68;0.68;;;;;;;;;;5027155;28;20029;-75
2023/09/19 06:14:02;;;;;;;2.55;0.90;;;;;;;;;;5019550;28;20394;-77
2023/09/19 06:16:28;;;;;;;1.63;1.52;;;;;;;;;;5027952;28;20022;-76
2023/09/19 06:18:55;;;;;;;1.75;1.35;;;;;;;;;;5027624;28;20079;-76
2023/09/19 06:21:22;;;;;;;5.13;1.42;;;20.60;92.00;;;;;;5028118;28;20026;-76
2023/09/19 06:23:48;;;;;;;3.00;1.30;;;;;;;;;;5028026;28;20038;-76
2023/09/19 06:26:14;;;;;;;0.90;0.90;;;;;;;;;;5020425;28;20645;-76
2023/09/19 06:28:40;;;;;;;2.45;1.25;;;;;;;;;;5024682;28;20030;-79
2023/09/19 06:31:09;;;;;;;1.90;0.90;;;;;;;;;;4999208;28;20430;-79
2023/09/19 06:33:38;;;;;;;1.30;0.65;;;;;;;;;;4947084;28;20043;-79
2023/09/19 06:36:05;;;;;;;0.68;0.68;;;;;;;;;;4936531;28;20135;-80
2023/09/19 06:38:32;;;;;;;0.30;0.30;;;;;;;;;;4940601;28;20024;-79
2023/09/19 06:40:58;;;;;;;0.52;0.52;;;30.70;44.60;;;;;;4946965;28;20503;-79
2023/09/19 06:43:24;;;;;;;2.08;1.08;;;;;;;;;;4947152;28;20053;-79
2023/09/19 06:45:54;;;;;;;0.68;0.40;;;;;;;;;;4942346;28;20114;-79
2023/09/19 06:48:21;;;;;;;1.23;0.43;;;28.50;55.20;;;;;;4946661;28;20106;-77
2023/09/19 06:50:48;;;;;;;0.70;0.40;;;;;;;;;;4938098;28;20571;-76
2023/09/19 06:53:13;;;;;;;;;;;27.20;46.60;;;;;;4945339;28;20027;-77
2023/09/19 06:55:40;;;;;;;0.93;0.25;;;;;;;;;;4949870;28;20048;-77
2023/09/19 06:58:06;;;;;;;1.60;0.80;;;;;;;;;;4948012;28;20507;-77
2023/09/19 07:00:36;;;;;;;10.50;9.83;;;;;;;;;;4981644;28;20290;-77
2023/09/19 07:03:05;;;;;;;0.32;0.32;;;34.30;40.10;;;;;;4964161;28;20028;-79
2023/09/19 07:05:31;;;;;;;2.78;0.30;;;36.50;36.10;;;;;;4946281;28;20093;-79
2023/09/19 07:07:58;;;;;;;3.45;1.55;;;38.40;44.30;;;;;;4945897;28;20121;-77
2023/09/19 07:10:27;;;;;;;4.78;0.68;;;40.10;34.70;;;;;;4945811;28;20504;-77
2023/09/19 07:13:00;;;;;;;1.90;0.85;;;42.00;29.90;;;;;;4946650;28;20027;-81
2023/09/19 07:15:27;;;;;;;1.83;1.00;;;43.20;28.20;;;;;;4946584;28;20019;-81
2023/09/19 07:17:56;;;;;;;0.70;0.43;;;;;;;;;;4945191;28;20102;-81
2023/09/19 07:20:25;;;;;;;0.57;0.32;;;42.30;29.10;;;;;;4939293;28;20360;-81
2023/09/19 07:22:51;;;;;;;0.88;0.40;;;;;;;;;;4946050;28;20110;-81
2023/09/19 07:25:17;;;;;;;0.95;0.47;;;;;;;;;;4948207;28;20508;-81
2023/09/19 07:27:43;;;;;;;;;;;43.30;28.80;;;;;;4950318;28;20403;-81
2023/09/19 07:30:09;;;;;;;3.88;0.60;;;43.70;28.20;;;;;;4942981;28;19911;-81
2023/09/19 07:32:38;;;;;;;1.00;0.35;;;;;;;;;;4961931;28;20085;-80
2023/09/19 07:35:07;;;;;;;0.40;0.32;;;46.10;27.40;;;;;;4949415;28;20504;-79
2023/09/19 07:37:33;;;;;;;1.02;0.50;;;;;;;;;;4950792;28;20398;-80
2023/09/19 07:40:00;;;;;;;;;;;47.50;26.10;;;;;;4949546;28;20035;-80
2023/09/19 07:42:26;;;;;;;1.38;0.73;;;;;;;;;;4968665;28;20404;-80
2023/09/19 07:44:53;;;;;;;0.63;0.40;;;;;;;;;;4949613;28;20106;-80
2023/09/19 07:47:20;;;;;;;0.85;0.40;;;;;;;;;;4996574;28;20031;-80
2023/09/19 07:49:49;;;;;;;0.90;0.30;;;48.80;24.50;;;;;;4948872;28;20031;-80
2023/09/19 07:52:15;;;;;;;0.93;0.38;;;;;;;;;;4949059;28;20524;-79
2023/09/19 07:54:43;;;;;;;0.40;0.20;;;;;;;;;;4962667;28;20058;-80
2023/09/19 07:57:09;;;;;;;0.98;0.38;;;;;;;;;;4948544;28;20443;-80
2023/09/19 07:59:36;;;;;;;1.42;0.30;;;;;;;;;;4943440;28;20165;-80
2023/09/19 08:02:04;;;;;;;0.80;0.30;;;;;;;;;;4944750;28;20085;-80
2023/09/19 08:04:33;;;;;;;0.40;0.25;;;;;;;;;;4941968;28;20074;-81
2023/09/19 08:07:00;;;;;;;1.05;0.45;;;;;;;;;;4949617;28;20102;-79
2023/09/19 08:09:27;;;;;;;0.17;0.17;;;;;;;;;;4948090;28;20029;-80
2023/09/19 08:11:53;;;;;;;1.13;0.10;;;;;;;;;;4946985;28;20077;-80
2023/09/19 08:14:19;;;;;;;0.30;0.20;;;;;;;;;;4943689;28;20058;-81
2023/09/19 08:16:46;;;;;;;0.68;0.40;;;;;;;;;;4938502;28;20465;-80
2023/09/19 08:19:12;;;;;;;1.13;0.90;;;;;;;;;;4949151;28;20054;-81
2023/09/19 08:21:38;;;;;;;2.17;0.60;;;;;;;;;;4949004;28;20077;-80
2023/09/19 08:24:04;;;;;;;1.02;0.60;;;;;;;;;;4940663;28;20043;-80
2023/09/19 08:26:31;;;;;;;1.35;0.50;;;;;;;;;;4936840;28;20039;-81
2023/09/19 08:28:57;;;;;;;0.77;0.45;;;;;;;;;;4941342;28;20062;-81
2023/09/19 08:31:23;;;;;;;0.75;0.35;;;;;;;;;;4944269;28;20075;-79
2023/09/19 08:33:52;;;;;;;0.85;0.50;;;52.40;21.70;;;;;;4942901;28;20531;-80
2023/09/19 08:36:18;;;;;;;2.05;0.50;;;51.20;28.20;;;;;;4937891;28;20047;-76
2023/09/19 08:38:44;;;;;;;0.32;0.17;;;;;;;;;;4946505;28;20527;-80
2023/09/19 08:41:10;;;;;;;0.73;0.30;;;;;;;;;;4947681;28;20065;-80
2023/09/19 08:43:36;;;;;;;0.95;0.28;;;;;;;;;;4948884;28;20054;-80
2023/09/19 08:46:14;;;;;;;1.00;0.38;;;48.70;22.70;;;;;;4948692;28;20036;-79
2023/09/19 08:48:51;;;;;;;2.60;0.82;;;48.10;23.60;;;;;;4949312;28;20407;-82
2023/09/19 08:51:26;;;;;;;1.25;0.20;;;47.80;23.00;;;;;;4947052;28;20054;-80
2023/09/19 08:54:00;;;;;;;1.30;0.30;;;49.10;22.80;;;;;;4938712;28;20027;-81
2023/09/19 08:56:27;;;;;;;1.15;0.45;;;;;;;;;;4947609;28;20058;-81
2023/09/19 08:59:11;;;;;;;0.43;0.40;;;54.10;21.60;;;;;;4940729;28;20046;-82
2023/09/19 09:01:41;;;;;;;1.50;0.50;;;54.00;20.90;;;;;;4946485;28;20039;-81
2023/09/19 09:04:09;;;;;;;0.52;0.30;;;54.80;21.10;;;;;;4949385;28;20644;-82
2023/09/19 09:06:35;;;;;;;0.73;0.40;;;;;;;;;;4940083;28;20105;-81
2023/09/19 09:09:01;;;;;;;0.40;0.30;;;;;;;;;;4948791;28;20142;-80
2023/09/19 09:11:28;;;;;;;0.50;0.30;;;58.30;20.90;;;;;;4948056;28;20519;-81
2023/09/19 09:13:54;;;;;;;0.73;0.40;;;;;;;;;;4948973;28;20030;-83
2023/09/19 09:16:19;;;;;;;2.88;0.65;;;58.00;24.70;;;;;;4948270;28;20437;-81
2023/09/19 09:18:46;;;;;;;1.05;0.50;;;55.70;24.70;;;;;;4949070;28;20049;-82
2023/09/19 09:21:15;;;;;;;2.05;0.30;;;54.30;20.20;;;;;;4948152;28;20059;-81
2023/09/19 09:23:41;;;;;;;2.67;0.73;;;;;;;;;;4970575;28;20685;-81
2023/09/19 09:26:09;;;;;;;2.20;0.30;;;;;;;;;;4955208;28;20031;-81
2023/09/19 09:28:38;;;;;;;1.38;0.43;;;52.80;20.30;;;;;;4983231;28;20493;-81
2023/09/19 09:31:08;;;;;;;2.28;0.30;;;;;;;;;;4942363;28;20492;-81
2023/09/19 09:33:35;;;;;;;1.05;0.60;;;53.80;20.70;;;;;;4972719;28;20432;-81
2023/09/19 09:36:02;;;;;;;0.82;0.50;;;56.50;19.70;;;;;;4948418;28;20121;-81
2023/09/19 09:38:49;;;;;;;0.70;0.40;;;55.20;19.40;;;;;;4947787;28;20047;-79
2023/09/19 09:41:27;;;;;;;0.98;0.30;;;49.60;20.80;;;;;;4945602;28;20414;-80
2023/09/19 09:43:54;;;;;;;0.38;0.20;;;;;;;;;;4947531;28;20120;-80
2023/09/19 09:49:18;;;;;;;1.02;0.00;;;38.00;25.40;;;;;;4957177;28;20126;-82
2023/09/19 09:51:59;;;;;;;1.67;0.10;;;35.30;40.30;;;;;;4945526;28;20042;-81
2023/09/19 09:54:33;;;;;;;1.13;0.30;;;34.30;29.40;;;;;;4940881;28;20027;-82
2023/09/19 09:57:23;;;;;;;0.65;0.43;;;33.90;30.10;;;;;;4943433;28;20085;-83
2023/09/19 09:59:58;;;;;;;1.80;0.20;;;;;;;;;;4959613;28;20046;-82
2023/09/19 10:02:36;;;;;;;1.50;0.30;;;35.10;29.60;;;;;;4948768;28;20027;-79
2023/09/19 10:05:20;;;;;;;0.20;0.13;;;35.90;29.00;;;;;;4936749;28;20054;-80
2023/09/19 10:07:52;;;;;;;1.13;0.20;;;36.20;28.80;;;;;;4952091;28;20432;-81
2023/09/19 10:13:08;;;;;;;0.43;0.30;;;;;;;;;;4949662;28;20019;-80
2023/09/19 10:15:36;;;;;;;1.35;0.40;;;37.20;29.00;;;;;;4947842;28;20511;-81
2023/09/19 10:18:04;;;;;;;0.38;0.10;;;38.90;27.70;;;;;;4947539;28;20059;-80
2023/09/19 10:20:35;;;;;;;3.55;0.55;;;40.10;27.00;;;;;;4947878;28;20037;-81
2023/09/19 10:23:03;;;;;;;1.77;0.20;;;40.50;26.10;;;;;;4947119;28;20023;-81
2023/09/19 10:25:30;;;;;;;3.28;0.28;;;;;;;;;;4948055;28;20381;-81
2023/09/19 10:27:59;;;;;;;0.65;0.20;;;40.30;26.10;;;;;;4971214;28;20616;-81
2023/09/19 10:30:25;;;;;;;3.15;0.50;;;;;;;;;;4947444;28;20073;-80
2023/09/19 10:32:56;;;;;;;;;;;40.30;26.10;;;;;;4947817;28;20031;-81
2023/09/19 10:35:24;;;;;;;1.42;0.30;;;;;;;;;;4947811;28;19922;-81
2023/09/19 10:37:51;;;;;;;0.20;0.10;;;44.30;23.50;;;;;;4947427;28;20031;-80
2023/09/19 10:40:20;;;;;;;1.17;0.10;;;42.70;24.30;;;;;;4947892;28;20023;-81
2023/09/19 10:42:48;;;;;;;0.52;0.28;;;45.50;24.90;;;;;;4947242;28;20074;-80
2023/09/19 10:45:17;;;;;;;2.10;0.20;;;47.60;23.10;;;;;;4947623;28;20038;-80
2023/09/19 10:47:43;;;;;;;0.30;0.20;;;;;;;;;;4947070;28;20070;-80
2023/09/19 10:50:21;;;;;;;0.98;0.30;;;47.40;29.30;;;;;;4953452;28;20025;-79
2023/09/19 10:52:50;;;;;;;0.60;0.30;;;;;;;;;;4939891;28;20036;-80
2023/09/19 10:55:22;;;;;;;0.40;0.20;;;47.60;29.50;;;;;;4947141;28;20035;-80
2023/09/19 10:57:48;;;;;;;0.38;0.13;;;;;;;;;;4947321;28;20088;-80
2023/09/19 11:00:23;;;;;;;0.50;0.30;;;;;;;;;;4970885;28;20024;-81
2023/09/19 11:03:08;;;;;;;;;;;54.00;22.20;;;;;;4949922;28;20561;-80
2023/09/19 11:05:35;;;;;;;0.50;0.30;;;;;;;;;;4950689;28;19984;-80
2023/09/19 11:08:04;;;;;;;0.90;0.30;;;;;;;;;;4945612;28;20024;-81
2023/09/19 11:10:50;;;;;;;0.82;0.15;;;56.80;25.40;;;;;;4941762;28;20141;-80
2023/09/19 11:13:31;;;;;;;0.25;0.20;;;56.30;20.40;;;;;;4950640;28;20030;-81
2023/09/19 11:15:59;;;;;;;0.50;0.40;;;56.20;19.90;;;;;;4949708;28;20063;-80
2023/09/19 11:18:40;;;;;;;0.20;0.20;;;55.80;21.40;;;;;;4950334;28;20027;-80
2023/09/19 11:21:29;;;;;;;0.32;0.20;;;56.60;22.90;;;;;;4954477;28;20031;-80
2023/09/19 11:24:10;;;;;;;0.55;0.30;;;56.50;21.30;;;;;;4978977;28;20038;-80
2023/09/19 11:26:47;;;;;;;1.55;0.22;;;56.60;20.60;;;;;;4946063;28;20606;-81
2023/09/19 11:29:31;;;;;;;0.20;0.20;;;54.20;23.00;;;;;;4964131;28;20050;-81
2023/09/19 11:31:59;;;;;;;1.02;0.20;;;;;;;;;;4960557;28;20139;-81
2023/09/19 11:34:36;;;;;;;0.28;0.20;;;49.40;21.00;;;;;;4950313;28;20043;-80
2023/09/19 11:37:14;;;;;;;0.50;0.30;;;51.10;21.10;;;;;;4947500;28;20181;-80
2023/09/19 11:40:09;;;;;;;0.50;0.20;;;51.10;20.20;;;;;;4941470;28;20031;-80
2023/09/19 11:42:45;;;;;;;1.95;0.47;;;45.60;21.30;;;;;;4949789;28;20035;-80
2023/09/19 11:45:39;;;;;;;0.98;0.03;;;41.20;23.20;;;;;;4950061;28;20077;-82
2023/09/19 11:48:06;;;;;;;0.47;0.00;;;;;;;;;;4943902;28;20480;-80
2023/09/19 11:50:34;;;;;;;0.55;0.30;;;40.00;26.40;;;;;;4949613;28;20042;-80
2023/09/19 11:53:01;;;;;;;0.25;0.17;;;;;;;;;;4949958;28;20073;-80
2023/09/19 11:55:32;;;;;;;1.25;0.10;;;44.90;24.00;;;;;;4948923;28;20047;-80
2023/09/19 11:57:59;;;;;;;0.90;0.20;;;;;;;;;;4949483;28;20047;-81
2023/09/19 12:00:27;;;;;;;0.80;0.35;;;;;;;;;;4949498;28;20042;-80
2023/09/19 12:03:00;;;;;;;0.17;0.10;;;46.10;23.80;;;;;;4944201;28;20036;-81
2023/09/19 12:05:31;;;;;;;2.33;0.20;;;45.90;23.10;;;;;;4976453;28;20495;-81
2023/09/19 12:07:57;;;;;;;1.55;0.68;;;;;;;;;;4966948;28;20046;-81
2023/09/19 12:10:23;;;;;;;0.28;0.13;;;;;;;;;;4945531;28;20114;-82
2023/09/19 12:12:50;;;;;;;0.57;0.28;;;;;;;;;;4949831;28;20047;-81
2023/09/19 12:15:28;;;;;;;0.43;0.10;;;43.40;24.00;;;;;;4949472;28;20088;-81
2023/09/19 12:17:54;;;;;;;0.47;0.10;;;42.10;23.70;;;;;;4949825;28;20036;-81
2023/09/19 12:20:21;;;;;;;;;;;41.10;24.80;;;;;;4950548;28;20446;-81
2023/09/19 12:22:49;;;;;;;0.40;0.13;;;;;;;;;;4949951;28;19911;-81
2023/09/19 12:25:17;;;;;;;0.28;0.17;;;;;;;;;;4999585;28;20015;-81
2023/09/19 12:27:43;;;;;;;1.25;0.20;;;;;;;;;;4948660;28;20193;-81
2023/09/19 12:30:14;;;;;;;0.55;0.20;;;37.60;27.10;;;;;;4966063;28;20028;-81
2023/09/19 12:32:40;;;;;;;0.32;0.13;;;;;;;;;;4950390;28;20053;-81
2023/09/19 12:35:12;;;;;;;0.40;0.17;;;36.20;38.50;;;;;;4949399;28;20039;-81
2023/09/19 12:37:53;;;;;;;1.15;0.20;;;35.60;29.10;;;;;;4949860;28;20046;-81
2023/09/19 12:40:27;;;;;;;0.68;0.20;;;35.20;29.20;;;;;;4949729;28;20085;-79
2023/09/19 12:42:55;;;;;;;0.50;0.40;;;;;;;;;;4949174;28;20027;-81
2023/09/19 12:45:21;;;;;;;0.90;0.20;;;33.00;30.50;;;;;;4949580;28;20030;-81
2023/09/19 12:48:22;;;;;;;0.30;0.10;;;32.70;30.30;;;;;;4949019;28;20059;-81
2023/09/19 12:51:07;;;;;;;1.17;0.30;;;32.60;38.40;;;;;;4939281;28;20100;-80
2023/09/19 12:53:46;;;;;;;0.57;0.30;;;32.60;30.60;;;;;;4958661;28;20042;-81
2023/09/19 12:56:16;;;;;;;1.27;0.20;;;32.40;31.10;;;;;;4948049;28;20027;-82
2023/09/19 12:58:55;;;;;;;0.57;0.50;;;;;;;;;;4936562;28;20492;-80
2023/09/19 13:01:27;;;;;;;0.60;0.30;;;;;;;;;;4949256;28;20028;-80
2023/09/19 13:04:18;;;;;;;1.15;0.30;;;32.30;32.40;;;;;;4949617;28;20046;-79
2023/09/19 13:06:44;;;;;;;0.38;0.22;;;;;;;;;;4942698;28;20031;-79
2023/09/19 13:09:11;;;;;;;0.32;0.32;;;29.80;34.20;;;;;;4946750;28;20098;-80
2023/09/19 13:11:40;;;;;;;;;;;28.90;36.40;;;;;;4948531;28;20107;-81
2023/09/19 13:14:24;;;;;;;1.25;0.30;;;28.90;37.30;;;;;;4948333;28;19910;-80
2023/09/19 13:17:16;;;;;;;1.63;0.40;;;29.20;36.80;;;;;;4948777;28;20035;-80
2023/09/19 13:19:49;;;;;;;0.32;0.30;;;29.20;35.80;;;;;;4941371;28;20035;-80
2023/09/19 13:22:38;;;;;;;2.92;0.43;;;29.20;35.50;;;;;;4946971;28;20019;-80
2023/09/19 13:25:08;;;;;;;1.00;0.40;;;29.30;47.70;;;;;;4993226;28;20516;-82
2023/09/19 13:27:39;;;;;;;0.70;0.28;;;;;;;;;;4948085;28;20032;-83
2023/09/19 13:30:05;;;;;;;0.70;0.43;;;29.50;49.50;;;;;;4949136;28;20530;-82
2023/09/19 13:32:33;;;;;;;1.83;0.40;;;;;;;;;;4948242;28;20078;-81
2023/09/19 13:34:59;;;;;;;0.43;0.30;;;;;;;;;;4947712;28;20104;-81
2023/09/19 13:37:26;;;;;;;3.30;0.30;;;;;;;;;;4951551;28;20602;-81
2023/09/19 13:39:52;;;;;;;1.88;0.40;;;;;;;;;;4974109;28;20019;-81
2023/09/19 13:42:18;;;;;;;0.53;0.30;;;;;;;;;;4948284;28;20027;-80
2023/09/19 13:44:44;;;;;;;3.40;0.40;;;;;;;;;;4947988;28;20054;-80
2023/09/19 13:47:13;;;;;;;0.43;0.20;;;;;;;;;;4948226;28;20218;-80
2023/09/19 13:49:39;;;;;;;0.30;0.20;;;;;;;;;;4947771;28;20110;-80
2023/09/19 13:52:05;;;;;;;3.90;0.53;;;;;;;;;;4947518;28;20043;-80
2023/09/19 13:54:31;;;;;;;0.33;0.30;;;;;;;;;;4948541;28;20480;-83
2023/09/19 13:56:57;;;;;;;1.35;0.43;;;;;;;;;;4940604;28;20508;-82
2023/09/19 13:59:23;;;;;;;0.80;0.30;;;;;;;;;;4942132;28;20047;-83
2023/09/19 14:01:53;;;;;;;0.80;0.30;;;;;;;;;;4948223;28;20031;-82
2023/09/19 14:04:20;;;;;;;0.47;0.40;;;28.40;36.40;;;;;;4935529;28;20497;-82
2023/09/19 14:06:47;;;;;;;1.65;0.57;;;;;;;;;;4970603;28;20525;-81
2023/09/19 14:09:13;;;;;;;1.17;0.50;;;;;;;;;;4977520;28;20031;-82
2023/09/19 14:11:39;;;;;;;0.70;0.30;;;;;;;;;;4983235;28;20052;-82
2023/09/19 14:14:05;;;;;;;0.83;0.20;;;;;;;;;;4971113;28;20262;-83